Time;durP1;ratioP1;P1;durP2;ratioP2;P2;SDS_P1;SDS_P2;PMS_P1;PMS_P2;Temp;Humidity;BMP_temperature;BMP_pressure;BME280_temperature;BME280_humidity;BME280_pressure;Samples;Min_cycle;Max_cycle;Signal;HPM_P1;HPM_P2
2022/08/24 00:00:36;;;;;;;22.47;20.17;;;;;;;18.52;98.09;101571.06;5032756;28;20607;-82
2022/08/24 00:03:01;;;;;;;22.47;20.27;;;;;;;18.43;97.29;101567.06;5032680;28;20362;-82
2022/08/24 00:05:27;;;;;;;23.93;21.43;;;;;;;18.46;97.30;101569.34;5031710;28;20037;-82
2022/08/24 00:07:52;;;;;;;23.83;21.53;;;;;;;18.45;97.61;101563.00;5013288;28;20493;-81
2022/08/24 00:10:20;;;;;;;23.67;21.27;;;;;;;18.41;97.75;101571.97;5032594;28;20064;-83
2022/08/24 00:12:45;;;;;;;24.77;22.27;;;;;;;18.39;98.73;101564.81;5032168;28;20090;-83
2022/08/24 00:15:13;;;;;;;26.30;23.70;;;;;;;18.42;99.25;101574.47;5032963;28;20037;-82
2022/08/24 00:17:38;;;;;;;23.57;21.13;;;;;;;18.37;98.23;101577.13;5014148;28;20049;-82
2022/08/24 00:20:06;;;;;;;26.10;23.30;;;;;;;18.41;98.86;101574.72;5013625;28;20162;-82
2022/08/24 00:22:32;;;;;;;25.33;22.87;;;;;;;18.45;98.48;101578.63;5032181;28;20064;-82
2022/08/24 00:24:58;;;;;;;25.37;22.67;;;;;;;18.30;98.39;101582.75;5031991;28;20030;-82
2022/08/24 00:27:23;;;;;;;28.00;25.27;;;;;;;18.36;99.09;101586.44;5031770;28;20516;-81
2022/08/24 00:29:49;;;;;;;23.53;21.00;;;;;;;18.34;97.53;101583.91;5032742;28;20041;-82
2022/08/24 00:32:14;;;;;;;25.70;23.10;;;;;;;18.30;98.24;101585.50;5028866;28;20043;-82
2022/08/24 00:34:39;;;;;;;25.97;23.40;;;;;;;18.34;98.07;101581.19;5030887;28;20051;-82
2022/08/24 00:37:05;;;;;;;26.13;23.53;;;;;;;18.33;98.28;101582.28;5031260;28;20821;-82
2022/08/24 00:39:30;;;;;;;27.53;24.63;;;;;;;18.28;98.91;101584.91;5031495;28;20400;-82
2022/08/24 00:41:56;;;;;;;27.13;24.33;;;;;;;18.27;98.79;101583.25;5031685;28;20033;-82
2022/08/24 00:44:21;;;;;;;28.67;25.67;;;;;;;18.25;98.98;101582.69;5031945;28;20041;-82
2022/08/24 00:46:56;;;;;;;28.53;25.73;;;;;;;18.21;99.41;101582.31;5031391;28;20480;-82
2022/08/24 00:49:25;;;;;;;29.23;26.27;;;;;;;18.22;100.00;101574.91;5013643;28;20033;-82
2022/08/24 00:51:56;;;;;;;29.60;26.67;;;;;;;18.14;99.82;101578.06;5031789;28;20143;-82
2022/08/24 00:54:25;;;;;;;28.47;25.60;;;;;;;18.13;99.71;101582.72;5030339;28;20054;-82
2022/08/24 00:56:55;;;;;;;27.67;24.87;;;;;;;18.06;99.06;101587.53;5030652;28;20043;-82
2022/08/24 00:59:25;;;;;;;32.07;28.80;;;;;;;17.96;100.00;101593.63;5031918;28;20029;-82
2022/08/24 01:01:52;;;;;;;30.00;27.10;;;;;;;17.95;100.00;101591.97;5030440;28;20128;-81
2022/08/24 01:04:27;;;;;;;30.53;27.63;;;;;;;17.99;100.00;101598.63;5031513;28;20086;-82
2022/08/24 01:06:55;;;;;;;31.43;28.43;;;;;;;17.97;100.00;101600.78;5031691;28;20432;-82
2022/08/24 01:09:21;;;;;;;27.10;24.40;;;;;;;17.89;100.00;101593.72;5030942;28;20040;-82
2022/08/24 01:11:48;;;;;;;30.00;27.13;;;;;;;17.92;100.00;101595.19;5030683;28;20040;-82
2022/08/24 01:14:13;;;;;;;30.57;27.37;;;;;;;17.89;100.00;101592.91;5030716;28;20041;-82
2022/08/24 01:19:26;;;;;;;;;;;;;;;18.04;98.15;101585.00;5031834;28;20127;-82
2022/08/24 01:22:05;;;;;;;28.20;25.20;;;;;;;17.91;100.00;101585.28;5030700;28;19925;-82
2022/08/24 01:24:30;;;;;;;26.37;23.53;;;;;;;17.90;100.00;101594.56;5030528;28;20065;-83
2022/08/24 01:26:56;;;;;;;25.23;22.53;;;;;;;17.74;99.95;101590.66;4994711;28;20147;-82
2022/08/24 01:29:26;;;;;;;27.53;24.50;;;;;;;17.91;100.00;101592.66;5030695;28;20067;-82
2022/08/24 01:31:52;;;;;;;26.53;23.27;;;;;;;17.80;100.00;101589.72;5012955;28;20048;-83
2022/08/24 01:34:18;;;;;;;26.33;23.67;;;;;;;17.75;100.00;101591.50;5031535;28;20044;-81
2022/08/24 01:36:49;;;;;;;28.47;25.57;;;;;;;17.77;100.00;101589.34;5030742;28;20042;-82
2022/08/24 01:39:22;;;;;;;30.63;27.53;;;;;;;17.80;100.00;101589.72;5029854;28;20040;-82
2022/08/24 01:41:47;;;;;;;26.77;23.97;;;;;;;17.67;100.00;101579.00;5030484;28;20775;-82
2022/08/24 01:44:14;;;;;;;27.80;25.10;;;;;;;17.70;100.00;101573.03;5030036;28;20037;-82
2022/08/24 01:46:47;;;;;;;27.90;25.00;;;;;;;17.76;100.00;101576.72;5030074;28;20025;-83
2022/08/24 01:49:14;;;;;;;31.65;28.45;;;;;;;17.74;100.00;101579.72;5012567;28;20388;-82
2022/08/24 01:51:41;;;;;;;29.37;26.40;;;;;;;17.69;100.00;101574.97;5030475;28;20044;-82
2022/08/24 01:54:06;;;;;;;30.63;27.60;;;;;;;17.71;100.00;101581.03;5030598;28;20645;-82
2022/08/24 01:56:32;;;;;;;29.87;26.77;;;;;;;17.71;100.00;101580.19;5030517;28;20044;-82
2022/08/24 01:58:58;;;;;;;30.30;27.20;;;;;;;17.74;100.00;101581.63;5030250;28;20041;-82
2022/08/24 02:01:25;;;;;;;32.13;29.03;;;;;;;17.71;100.00;101575.53;5030504;28;20041;-82
2022/08/24 02:03:51;;;;;;;32.10;28.70;;;;;;;17.68;100.00;101575.22;5030658;28;20033;-82
2022/08/24 02:06:18;;;;;;;30.97;27.87;;;;;;;17.66;100.00;101572.69;5027531;28;20033;-82
2022/08/24 02:08:44;;;;;;;30.77;27.77;;;;;;;17.62;100.00;101576.97;5030110;28;20626;-82
2022/08/24 02:11:10;;;;;;;34.83;31.33;;;;;;;17.65;100.00;101582.00;5029727;28;20041;-82
2022/08/24 02:13:37;;;;;;;32.57;29.27;;;;;;;17.63;100.00;101578.66;5030900;28;20103;-82
2022/08/24 02:16:04;;;;;;;28.20;25.47;;;;;;;17.57;100.00;101574.16;5030149;28;20037;-82
2022/08/24 02:18:30;;;;;;;32.23;29.03;;;;;;;17.56;100.00;101575.22;5029805;28;20046;-82
2022/08/24 02:20:55;;;;;;;30.23;27.30;;;;;;;17.59;100.00;101572.00;5028132;28;20036;-82
2022/08/24 02:23:21;;;;;;;31.37;28.17;;;;;;;17.56;100.00;101583.44;5027780;28;21470;-82
2022/08/24 02:25:47;;;;;;;33.40;30.00;;;;;;;17.53;100.00;101592.16;5029929;28;20115;-82
2022/08/24 02:28:12;;;;;;;33.17;29.77;;;;;;;17.55;100.00;101592.72;5030937;28;20044;-82
2022/08/24 02:30:39;;;;;;;30.97;27.87;;;;;;;17.53;100.00;101595.72;5029519;28;20032;-82
2022/08/24 02:33:04;;;;;;;30.60;27.57;;;;;;;17.53;99.92;101603.13;5027511;28;20052;-82
2022/08/24 02:35:30;;;;;;;32.17;29.07;;;;;;;17.48;100.00;101603.00;5030173;28;20489;-82
2022/08/24 02:37:56;;;;;;;32.87;29.43;;;;;;;17.46;100.00;101605.97;5012237;28;20041;-82
2022/08/24 02:40:21;;;;;;;32.80;29.30;;;;;;;17.43;100.00;101605.59;5030149;28;20432;-82
2022/08/24 02:42:46;;;;;;;33.90;30.27;;;;;;;17.50;100.00;101614.53;5030342;28;20124;-82
2022/08/24 02:45:12;;;;;;;31.10;27.90;;;;;;;17.33;100.00;101600.75;5029673;28;20033;-82
2022/08/24 02:47:38;;;;;;;32.57;29.30;;;;;;;17.36;100.00;101605.72;5028779;28;20483;-82
2022/08/24 02:50:05;;;;;;;32.43;29.03;;;;;;;17.37;100.00;101605.50;5012142;28;20113;-83
2022/08/24 02:52:31;;;;;;;33.67;30.37;;;;;;;17.36;100.00;101600.25;5028411;28;20042;-82
2022/08/24 02:54:56;;;;;;;36.23;32.73;;;;;;;17.33;100.00;101595.25;5029155;28;20090;-82
2022/08/24 02:57:21;;;;;;;32.70;29.40;;;;;;;17.36;100.00;101597.50;5028848;28;20025;-82
2022/08/24 02:59:47;;;;;;;33.40;30.00;;;;;;;17.29;100.00;101597.63;5028952;28;20075;-82
2022/08/24 03:02:12;;;;;;;32.67;29.17;;;;;;;17.29;100.00;101594.06;5028772;28;20041;-83
2022/08/24 03:04:38;;;;;;;30.93;27.77;;;;;;;17.26;100.00;101592.63;5028537;28;20042;-83
2022/08/24 03:07:04;;;;;;;29.83;26.70;;;;;;;17.25;100.00;101593.69;5028851;28;20056;-82
2022/08/24 03:09:29;;;;;;;26.43;23.43;;;;;;;17.11;100.00;101593.13;5029019;28;20124;-83
2022/08/24 03:11:55;;;;;;;27.30;24.53;;;;;;;17.21;100.00;101592.50;5029162;28;20390;-83
2022/08/24 03:14:20;;;;;;;25.97;23.23;;;;;;;17.25;100.00;101593.69;5028517;28;20045;-83
2022/08/24 03:16:45;;;;;;;26.83;23.23;;;;;;;17.17;100.00;101594.06;5028054;28;20148;-83
2022/08/24 03:19:12;;;;;;;25.10;22.40;;;;;;;17.11;100.00;101590.38;5029341;28;20092;-83
2022/08/24 03:21:37;;;;;;;27.23;24.50;;;;;;;17.13;100.00;101590.13;5027328;28;20897;-84
2022/08/24 03:24:03;;;;;;;28.13;25.33;;;;;;;17.12;100.00;101588.47;5029087;28;20052;-83
2022/08/24 03:26:29;;;;;;;27.83;24.93;;;;;;;17.12;100.00;101594.78;5027187;28;20133;-83
2022/08/24 03:28:54;;;;;;;29.10;24.33;;;;;;;17.11;100.00;101581.31;5027968;28;20470;-83
2022/08/24 03:31:20;;;;;;;28.73;25.83;;;;;;;17.14;100.00;101589.06;5028843;28;20037;-83
2022/08/24 03:33:46;;;;;;;30.50;27.27;;;;;;;17.14;100.00;101586.34;5029198;28;20053;-83
2022/08/24 03:36:11;;;;;;;29.00;26.10;;;;;;;17.07;100.00;101580.13;5009744;28;20038;-83
2022/08/24 03:38:36;;;;;;;29.40;26.40;;;;;;;17.10;100.00;101587.88;5009432;28;20045;-84
2022/08/24 03:41:02;;;;;;;32.23;29.03;;;;;;;17.10;100.00;101580.50;5028481;28;20041;-83
2022/08/24 03:43:45;;;;;;;34.10;30.43;;;;;;;17.04;100.00;101581.44;5026980;28;20127;-83
2022/08/24 03:46:13;;;;;;;31.87;28.47;;;;;;;17.04;100.00;101579.53;5028375;28;20040;-83
2022/08/24 03:48:39;;;;;;;30.97;27.77;;;;;;;17.01;100.00;101585.50;5028305;28;20288;-84
2022/08/24 03:51:06;;;;;;;31.47;28.27;;;;;;;17.00;100.00;101581.09;5027942;28;20032;-83
2022/08/24 03:53:32;;;;;;;29.53;26.50;;;;;;;16.96;100.00;101584.50;5028863;28;20681;-83
2022/08/24 03:55:57;;;;;;;30.80;27.63;;;;;;;16.95;100.00;101593.81;5028511;28;20033;-83
2022/08/24 03:58:23;;;;;;;30.70;27.60;;;;;;;16.96;100.00;101592.72;5028546;28;20040;-83
2022/08/24 04:00:48;;;;;;;29.57;26.67;;;;;;;16.95;100.00;101588.34;5028183;28;20071;-83
2022/08/24 04:03:14;;;;;;;30.40;27.40;;;;;;;16.89;100.00;101595.59;5027600;28;20032;-83
2022/08/24 04:05:41;;;;;;;31.13;28.03;;;;;;;16.81;100.00;101593.16;5026459;28;20396;-83
2022/08/24 04:08:07;;;;;;;29.60;26.70;;;;;;;16.87;100.00;101597.69;5028862;28;20507;-83
2022/08/24 04:10:33;;;;;;;27.93;25.03;;;;;;;16.72;100.00;101606.34;5028537;28;20033;-84
2022/08/24 04:13:02;;;;;;;28.50;25.67;;;;;;;16.76;100.00;101601.25;5028260;28;20481;-84
2022/08/24 04:15:30;;;;;;;27.10;24.37;;;;;;;16.75;100.00;101605.06;5028732;28;20250;-83
2022/08/24 04:17:56;;;;;;;27.33;24.57;;;;;;;16.78;100.00;101601.84;5028076;28;20045;-83
2022/08/24 04:20:22;;;;;;;25.07;22.63;;;;;;;16.68;100.00;101603.25;5028053;28;20416;-83
2022/08/24 04:22:50;;;;;;;25.77;23.17;;;;;;;16.62;100.00;101606.94;5026727;28;20069;-83
2022/08/24 04:25:15;;;;;;;26.17;23.67;;;;;;;16.65;100.00;101606.44;5028133;28;20053;-83
2022/08/24 04:27:41;;;;;;;22.73;20.37;;;;;;;16.58;100.00;101608.47;5028246;28;20789;-83
2022/08/24 04:30:07;;;;;;;22.83;20.43;;;;;;;16.58;100.00;101605.72;5031787;28;20114;-83
2022/08/24 04:32:32;;;;;;;26.70;24.10;;;;;;;16.59;100.00;101607.41;5031729;28;20856;-84
2022/08/24 04:35:16;;;;;;;31.20;28.00;;;;;;;16.66;100.00;101608.13;5031274;28;20041;-83
2022/08/24 04:37:42;;;;;;;26.08;23.58;;;;;;;16.56;100.00;101605.13;5031838;28;20044;-83
2022/08/24 04:40:08;;;;;;;27.63;24.93;;;;;;;16.66;100.00;101613.59;5030114;28;20527;-83
2022/08/24 04:42:34;;;;;;;26.50;23.80;;;;;;;16.60;100.00;101602.75;5030384;28;20037;-83
2022/08/24 04:44:59;;;;;;;27.57;24.20;;;;;;;16.58;100.00;101608.47;5029567;28;20477;-83
2022/08/24 04:47:25;;;;;;;25.20;22.70;;;;;;;16.58;100.00;101613.09;5031907;28;20263;-83
2022/08/24 04:49:50;;;;;;;26.33;23.63;;;;;;;16.57;100.00;101612.25;5031551;28;20659;-83
2022/08/24 04:52:16;;;;;;;25.07;22.53;;;;;;;16.58;100.00;101613.94;5031521;28;20480;-83
2022/08/24 04:54:41;;;;;;;24.20;21.90;;;;;;;16.59;100.00;101618.34;5029891;28;20062;-83
2022/08/24 04:57:06;;;;;;;26.67;24.13;;;;;;;16.64;100.00;101614.91;5014686;28;20040;-84
2022/08/24 04:59:32;;;;;;;27.33;24.53;;;;;;;16.67;100.00;101625.38;5030710;28;20068;-83
2022/08/24 05:01:57;;;;;;;28.53;25.63;;;;;;;16.67;100.00;101623.47;5030845;28;20217;-83
2022/08/24 05:04:23;;;;;;;27.10;24.53;;;;;;;16.62;100.00;101620.59;5017678;28;20044;-83
2022/08/24 05:06:49;;;;;;;29.83;27.03;;;;;;;16.54;100.00;101620.94;5031466;28;20136;-83
2022/08/24 05:09:14;;;;;;;29.57;26.60;;;;;;;16.57;100.00;101615.00;5030731;28;20036;-82
2022/08/24 05:11:40;;;;;;;31.93;28.97;;;;;;;16.62;100.00;101617.00;5031627;28;20048;-83
2022/08/24 05:14:06;;;;;;;31.13;28.30;;;;;;;16.68;100.00;101624.31;5029686;28;20045;-83
2022/08/24 05:16:33;;;;;;;31.70;28.83;;;;;;;16.67;100.00;101618.00;5013297;28;20067;-83
2022/08/24 05:19:01;;;;;;;30.30;27.40;;;;;;;16.69;100.00;101625.97;5031519;28;20111;-83
2022/08/24 05:21:27;;;;;;;29.73;26.87;;;;;;;16.69;100.00;101618.59;5030815;28;20040;-83
2022/08/24 05:23:52;;;;;;;33.00;30.00;;;;;;;16.78;100.00;101621.84;5030917;28;20044;-83
2022/08/24 05:26:24;;;;;;;31.53;28.53;;;;;;;16.79;100.00;101628.97;5030931;28;20041;-83
2022/08/24 05:28:54;;;;;;;31.00;27.90;;;;;;;16.84;100.00;101631.00;5029083;28;20079;-83
2022/08/24 05:31:23;;;;;;;30.53;27.73;;;;;;;16.84;100.00;101631.84;5030768;28;20044;-83
2022/08/24 05:33:49;;;;;;;31.60;28.70;;;;;;;16.95;100.00;101641.19;5012529;28;20037;-83
2022/08/24 05:36:37;;;;;;;32.73;29.63;;;;;;;17.01;100.00;101637.50;5029203;28;20408;-82
2022/08/24 05:39:17;;;;;;;35.27;32.20;;;;;;;17.12;100.00;101635.00;5029750;28;20036;-83
2022/08/24 05:41:44;;;;;;;40.47;36.93;;;;;;;17.23;100.00;101636.94;5012955;28;20437;-82
2022/08/24 05:44:10;;;;;;;41.50;37.77;;;;;;;17.30;100.00;101636.78;5029757;28;20037;-82
2022/08/24 05:46:36;;;;;;;47.43;42.83;;;;;;;17.40;100.00;101647.19;5029485;28;20033;-82
2022/08/24 05:49:01;;;;;;;50.77;46.00;;;;;;;17.46;100.00;101632.53;5030047;28;20063;-82
2022/08/24 05:51:28;;;;;;;46.30;42.00;;;;;;;17.54;100.00;101635.75;5029887;28;20033;-82
2022/08/24 05:53:53;;;;;;;49.17;44.57;;;;;;;17.63;100.00;101644.41;5030771;28;20029;-82
2022/08/24 05:56:19;;;;;;;45.23;41.03;;;;;;;17.70;100.00;101644.28;5029964;28;20043;-82
2022/08/24 05:58:45;;;;;;;60.33;54.63;;;;;;;17.80;100.00;101650.03;5029726;28;20793;-82
2022/08/24 06:01:20;;;;;;;54.13;48.83;;;;;;;17.93;100.00;101656.34;5031260;28;20052;-82
2022/08/24 06:03:47;;;;;;;52.53;47.43;;;;;;;18.03;100.00;101649.16;5027625;28;20493;-82
2022/08/24 06:06:14;;;;;;;46.37;41.87;;;;;;;18.17;100.00;101649.72;5010497;28;20037;-82
2022/08/24 06:08:45;;;;;;;44.13;39.63;;;;;;;18.25;100.00;101648.50;5029358;28;20476;-82
2022/08/24 06:11:18;;;;;;;52.33;47.33;;;;;;;18.36;100.00;101646.81;5029595;28;20037;-83
2022/08/24 06:13:43;;;;;;;54.53;49.03;;;;;;;18.51;100.00;101654.50;5030395;28;20049;-82
2022/08/24 06:16:12;;;;;;;51.00;46.10;;;;;;;18.61;100.00;101657.41;5010623;28;20033;-82
2022/08/24 06:18:38;;;;;;;57.03;51.63;;;;;;;18.70;100.00;101657.88;5028851;28;20098;-83
2022/08/24 06:21:10;;;;;;;56.08;50.58;;;;;;;18.78;100.00;101659.34;5030090;28;20136;-83
2022/08/24 06:23:36;;;;;;;49.72;44.92;;;;;;;18.94;100.00;101653.06;5029930;28;20062;-84
2022/08/24 06:28:47;;;;;;;54.47;49.38;;;;;;;19.18;100.00;101666.66;5030057;28;20063;-84
2022/08/24 06:31:14;;;;;;;54.47;49.10;;;;;;;19.33;100.00;101671.56;5029437;28;20037;-84
2022/08/24 06:33:39;;;;;;;51.42;46.35;;;;;;;19.44;100.00;101667.06;5029096;28;20093;-84
2022/08/24 06:36:05;;;;;;;51.50;46.45;;;;;;;19.58;100.00;101673.88;5030568;28;20032;-83
2022/08/24 06:38:30;;;;;;;49.53;44.83;;;;;;;19.71;100.00;101668.00;5028879;28;20337;-83
2022/08/24 06:40:56;;;;;;;51.92;46.88;;;;;;;19.85;100.00;101670.44;5030178;28;20067;-82
2022/08/24 06:43:23;;;;;;;49.95;45.13;;;;;;;20.00;100.00;101676.13;5028009;28;20037;-83
2022/08/24 06:45:49;;;;;;;46.83;42.33;;;;;;;20.15;100.00;101677.41;5020488;28;20064;-84
2022/08/24 06:48:15;;;;;;;46.47;41.78;;;;;;;20.24;100.00;101675.88;5011130;28;20040;-84
2022/08/24 06:50:40;;;;;;;44.88;40.47;;;;;;;20.40;100.00;101674.16;5028197;28;20547;-83
2022/08/24 06:53:06;;;;;;;42.00;37.78;;;;;;;20.57;100.00;101679.56;5029276;28;20053;-83
2022/08/24 06:55:31;;;;;;;40.45;36.55;;;;;;;20.69;99.52;101682.19;5029279;28;20045;-83
2022/08/24 06:57:57;;;;;;;39.45;35.50;;;;;;;20.83;97.56;101677.09;5015428;28;20037;-85
2022/08/24 07:00:23;;;;;;;39.03;35.05;;;;;;;21.02;97.49;101683.88;5028866;28;20524;-83
2022/08/24 07:02:49;;;;;;;40.08;36.13;;;;;;;21.18;96.95;101686.78;5030113;28;20061;-84
2022/08/24 07:05:15;;;;;;;38.35;34.30;;;;;;;21.29;94.64;101685.75;5027699;28;20116;-83
2022/08/24 07:07:40;;;;;;;37.22;33.53;;;;;;;21.41;93.15;101686.41;5028766;28;20097;-82
2022/08/24 07:10:08;;;;;;;35.40;31.70;;;;;;;21.57;92.54;101692.88;5028408;28;20497;-83
2022/08/24 07:12:34;;;;;;;33.53;30.33;;;;;;;21.72;91.67;101696.84;5028400;28;20025;-84
2022/08/24 07:14:59;;;;;;;36.33;32.40;;;;;;;21.88;90.02;101704.13;5007827;28;20827;-82
2022/08/24 07:17:25;;;;;;;33.30;29.70;;;;;;;21.99;87.20;101702.25;5028674;28;20103;-82
2022/08/24 07:19:50;;;;;;;32.25;28.75;;;;;;;22.15;86.74;101696.78;5028538;28;20156;-83
2022/08/24 07:22:15;;;;;;;29.45;26.35;;;;;;;22.30;84.89;101701.53;5028625;28;21744;-82
2022/08/24 07:24:41;;;;;;;31.17;27.95;;;;;;;22.46;86.28;101697.75;5028642;28;20041;-82
2022/08/24 07:27:06;;;;;;;33.63;30.23;;;;;;;22.56;87.47;101696.94;5028399;28;20043;-82
2022/08/24 07:29:31;;;;;;;32.15;28.88;;;;;;;22.64;86.00;101699.16;5028057;28;20041;-82
2022/08/24 07:31:57;;;;;;;27.80;24.80;;;;;;;22.81;81.51;101704.47;5028723;28;20037;-82
2022/08/24 07:34:23;;;;;;;26.33;23.20;;;;;;;22.91;80.44;101698.94;5029528;28;20593;-82
2022/08/24 07:36:49;;;;;;;27.95;23.25;;;;;;;22.97;80.18;101701.72;5028387;28;20477;-83
2022/08/24 07:39:15;;;;;;;26.50;22.92;;;;;;;23.06;80.47;101691.78;5027881;28;20024;-82
2022/08/24 07:41:42;;;;;;;27.17;23.08;;;;;;;23.23;80.31;101708.13;5027998;28;20049;-82
2022/08/24 07:44:09;;;;;;;24.77;22.10;;;;;;;23.49;78.31;101692.34;5027365;28;20033;-82
2022/08/24 07:46:34;;;;;;;26.45;20.67;;;;;;;23.66;77.43;101688.44;5028655;28;20122;-82
2022/08/24 07:48:59;;;;;;;24.45;20.65;;;;;;;23.72;76.70;101696.44;5028025;28;20049;-82
2022/08/24 07:51:26;;;;;;;24.20;20.08;;;;;;;23.93;74.31;101690.88;5026731;28;20041;-82
2022/08/24 07:53:51;;;;;;;24.00;19.85;;;;;;;24.09;73.52;101692.47;5027865;28;20037;-82
2022/08/24 07:56:17;;;;;;;24.55;19.58;;;;;;;24.29;75.49;101693.53;5026680;28;20111;-82
2022/08/24 07:58:43;;;;;;;24.92;19.45;;;;;;;24.45;73.73;101694.25;5026986;28;20176;-82
2022/08/24 08:01:09;;;;;;;18.75;15.68;;;;;;;24.48;68.13;101695.63;5027524;28;20037;-82
2022/08/24 08:03:35;;;;;;;20.42;16.30;;;;;;;24.58;66.85;101701.94;5030546;28;20075;-82
2022/08/24 08:06:03;;;;;;;19.50;13.57;;;;;;;24.82;66.50;101694.88;5031177;28;20183;-81
2022/08/24 08:08:29;;;;;;;19.85;15.18;;;;;;;24.99;67.30;101702.81;5032280;28;20503;-82
2022/08/24 08:10:56;;;;;;;20.23;14.60;;;;;;;25.17;65.49;101706.81;5032593;28;20540;-82
2022/08/24 08:13:21;;;;;;;21.83;15.55;;;;;;;25.06;65.24;101701.38;5031575;28;20047;-82
2022/08/24 08:15:47;;;;;;;22.58;15.55;;;;;;;25.17;64.95;101706.81;5032765;28;20045;-82
2022/08/24 08:18:14;;;;;;;20.98;14.13;;;;;;;25.30;64.76;101705.34;5030271;28;20537;-82
2022/08/24 08:20:40;;;;;;;21.40;13.50;;;;;;;25.47;63.19;101708.53;5031748;28;20047;-82
2022/08/24 08:25:57;;;;;;;18.33;10.90;;;;;;;25.82;60.99;101708.47;5032662;28;20111;-82
2022/08/24 08:28:24;;;;;;;16.27;9.60;;;;;;;25.77;62.98;101715.72;5031673;28;21755;-82
2022/08/24 08:30:51;;;;;;;16.40;11.07;;;;;;;25.97;62.50;101716.59;5032313;28;20033;-83
2022/08/24 08:33:16;;;;;;;16.73;12.00;;;;;;;26.47;60.09;101712.69;5032104;28;20048;-85
2022/08/24 08:35:43;;;;;;;18.02;10.77;;;;;;;26.55;60.16;101717.59;5030298;28;20041;-82
2022/08/24 08:38:09;;;;;;;17.27;10.35;;;;;;;26.93;60.44;101710.09;5031120;28;20040;-83
2022/08/24 08:40:37;;;;;;;15.70;10.50;;;;;;;27.25;57.92;101718.75;5031192;28;20052;-84
2022/08/24 08:43:12;;;;;;;15.45;9.82;;;;;;;27.61;57.28;101718.97;5031860;28;20037;-83
2022/08/24 08:45:56;;;;;;;15.48;10.68;;;;;;;27.83;53.67;101722.22;5031450;28;20954;-83
2022/08/24 08:48:46;;;;;;;13.50;10.25;;;;;;;28.41;55.97;101720.75;5032017;28;20041;-83
2022/08/24 08:51:32;;;;;;;14.85;8.73;;;;;;;28.33;54.74;101716.75;5031956;28;20112;-83
2022/08/24 08:54:28;;;;;;;13.43;9.07;;;;;;;28.41;53.52;101715.16;5043568;28;20033;-83
2022/08/24 08:57:15;;;;;;;13.95;8.13;;;;;;;28.43;54.90;101722.06;5051473;28;20033;-84
2022/08/24 09:00:04;;;;;;;11.57;8.02;;;;;;;29.12;54.37;101723.03;5046250;28;20111;-83
2022/08/24 09:03:00;;;;;;;9.43;6.18;;;;;;;29.61;52.92;101720.41;5051786;28;20051;-83
2022/08/24 09:05:50;;;;;;;10.82;5.72;;;;;;;29.33;49.25;101712.19;5030750;28;20036;-83
2022/08/24 09:08:33;;;;;;;14.52;7.82;;;;;;;29.47;48.52;101712.94;5050887;28;20131;-85
2022/08/24 09:11:06;;;;;;;8.23;4.85;;;;;;;30.08;48.37;101720.81;5050930;28;20400;-84
2022/08/24 09:13:57;;;;;;;8.98;4.50;;;;;;;29.91;47.62;101720.72;5050573;28;20053;-86
2022/08/24 09:16:23;;;;;;;8.80;5.30;;;;;;;29.42;46.90;101715.88;5050333;28;20585;-84
2022/08/24 09:18:57;;;;;;;7.68;4.18;;;;;;;29.26;49.66;101715.44;5050373;28;20024;-83
2022/08/24 09:21:29;;;;;;;6.00;3.45;;;;;;;29.97;47.22;101720.28;5049561;28;20110;-83
2022/08/24 09:24:36;;;;;;;4.82;3.00;;;;;;;30.59;45.80;101723.22;5050949;28;20391;-83
2022/08/24 09:27:31;;;;;;;8.10;4.63;;;;;;;30.30;46.76;101716.22;5031051;28;20048;-85
2022/08/24 09:30:19;;;;;;;6.68;4.10;;;;;;;30.64;48.70;101721.09;5050270;28;20101;-86
2022/08/24 09:33:18;;;;;;;5.28;3.55;;;;;;;30.47;48.84;101724.66;5050452;28;20033;-84
2022/08/24 09:35:49;;;;;;;6.13;4.00;;;;;;;30.92;44.73;101731.94;5050050;28;20092;-85
2022/08/24 09:38:54;;;;;;;4.10;3.30;;;;;;;31.46;45.49;101728.75;5050188;28;20037;-84
2022/08/24 09:41:44;;;;;;;5.05;3.10;;;;;;;31.44;42.85;101735.84;5041654;28;20404;-85
2022/08/24 09:44:15;;;;;;;4.03;2.47;;;;;;;31.00;42.88;101721.91;5050881;28;20067;-86
2022/08/24 09:47:09;;;;;;;3.42;2.00;;;;;;;31.12;43.10;101724.88;5049922;28;20366;-84
2022/08/24 09:49:47;;;;;;;3.58;2.30;;;;;;;31.19;41.62;101723.56;5048584;28;20052;-84
2022/08/24 09:52:25;;;;;;;5.75;2.70;;;;;;;30.83;41.77;101730.28;5049430;28;20043;-85
2022/08/24 09:55:12;;;;;;;4.88;3.15;;;;;;;30.34;44.20;101722.84;5049736;28;20097;-84
2022/08/24 09:58:19;;;;;;;2.85;2.40;;;;;;;30.59;45.82;101726.84;5049538;28;20076;-84
2022/08/24 10:00:59;;;;;;;4.18;2.47;;;;;;;30.25;44.36;101716.41;5007386;28;20423;-85
2022/08/24 10:03:34;;;;;;;5.72;3.13;;;;;;;30.14;45.07;101725.06;5006653;28;20713;-84
2022/08/24 10:06:14;;;;;;;5.50;2.90;;;;;;;29.90;45.95;101713.50;5034605;28;20083;-84
2022/08/24 10:09:14;;;;;;;5.00;3.42;;;;;;;30.34;44.14;101720.03;5049891;28;20068;-84
2022/08/24 10:12:01;;;;;;;5.28;2.85;;;;;;;30.30;45.01;101721.81;5049996;28;20064;-85
2022/08/24 10:14:52;;;;;;;3.30;3.00;;;;;;;29.74;46.58;101713.91;5048902;28;20043;-84
2022/08/24 10:17:29;;;;;;;5.40;3.03;;;;;;;30.04;45.83;101718.97;5049638;28;20499;-84
2022/08/24 10:20:19;;;;;;;7.30;2.70;;;;;;;30.79;45.87;101716.97;5049136;28;20419;-85
2022/08/24 10:23:26;;;;;;;3.90;2.25;;;;;;;30.91;44.83;101710.72;5049690;28;20041;-84
2022/08/24 10:26:08;;;;;;;2.70;2.50;;;;;;;30.74;43.39;101708.75;5048662;28;20469;-85
2022/08/24 10:28:50;;;;;;;4.75;3.40;;;;;;;30.78;44.79;101704.13;5049722;28;20361;-83
2022/08/24 10:31:30;;;;;;;6.30;3.70;;;;;;;31.14;43.73;101699.34;5049381;28;20643;-85
2022/08/24 10:34:42;;;;;;;4.45;3.25;;;;;;;31.42;43.14;101698.97;5031023;28;20416;-84
2022/08/24 10:37:38;;;;;;;4.95;3.22;;;;;;;31.75;40.75;101696.38;5011198;28;20056;-85
2022/08/24 10:40:09;;;;;;;5.65;3.47;;;;;;;31.71;39.98;101698.22;5048708;28;20127;-85
2022/08/24 10:46:08;;;;;;;7.05;3.33;;;;;;;31.64;40.54;101695.13;5049162;28;20455;-84
2022/08/24 10:48:42;;;;;;;4.38;2.92;;;;;;;31.93;39.90;101690.69;5049680;28;20039;-86
2022/08/24 10:51:33;;;;;;;7.40;2.97;;;;;;;31.97;41.81;101691.66;5048597;28;20032;-85
2022/08/24 10:53:59;;;;;;;6.80;2.88;;;;;;;31.70;44.08;101693.78;5035212;28;20086;-85
2022/08/24 10:56:43;;;;;;;6.10;3.40;;;;;;;31.95;41.25;101694.00;5049072;28;20036;-85
2022/08/24 10:59:21;;;;;;;3.63;2.80;;;;;;;31.87;40.46;101703.28;5048602;28;20043;-85
2022/08/24 11:02:09;;;;;;;3.72;2.38;;;;;;;31.80;41.77;101690.59;5048060;28;20550;-85
2022/08/24 11:04:36;;;;;;;4.53;2.28;;;;;;;31.31;40.07;101693.72;5048417;28;20044;-85
2022/08/24 11:07:17;;;;;;;2.95;1.85;;;;;;;31.15;39.64;101693.41;5048811;28;20492;-86
2022/08/24 11:09:50;;;;;;;2.83;1.60;;;;;;;30.92;41.40;101692.75;5048209;28;20059;-84
2022/08/24 11:12:27;;;;;;;3.67;1.58;;;;;;;30.16;42.55;101684.81;5029490;28;20029;-85
2022/08/24 11:14:56;;;;;;;2.50;1.60;;;;;;;29.54;43.09;101680.94;5046691;28;20249;-84
2022/08/24 11:17:58;;;;;;;3.13;1.63;;;;;;;30.06;44.26;101677.56;5047161;28;20191;-84
2022/08/24 11:20:31;;;;;;;2.42;1.67;;;;;;;30.21;43.34;101679.06;5046514;28;20045;-84
2022/08/24 11:23:13;;;;;;;2.03;1.60;;;;;;;30.28;41.11;101680.22;5047214;28;20033;-84
2022/08/24 11:25:44;;;;;;;1.80;1.70;;;;;;;30.44;41.47;101685.34;5046239;28;20040;-86
2022/08/24 11:28:28;;;;;;;2.00;1.80;;;;;;;30.60;40.61;101680.09;5046021;28;20032;-88
2022/08/24 11:30:53;;;;;;;1.85;1.75;;;;;;;30.64;42.13;101686.69;5047406;28;20044;-84
2022/08/24 11:33:44;;;;;;;2.72;1.92;;;;;;;30.71;41.02;101673.03;5046503;28;20627;-86
2022/08/24 11:36:24;;;;;;;4.10;1.90;;;;;;;30.81;42.82;101672.69;5044986;28;20067;-87